Página principal
METAR-TAF:

METAR-TAF

Aeroportos :

Amsterdão, Países Baixos

Aeroporto de Amesterdão Schiphol

latitude: 52-18N, longitude: 004-46E, altura: -4 m

Observação actual do tempo

O boletim foi feito há 28 minutos, às 03:25 UTC
Vento 8 kt de sudoeste
Temperatura 13°C
Humidade 82%
Pressão 1019 hPa
Visibilidade 10 km ou mais
sem nuvens abaixo de 1500 metros e sem cumulonimbus

METAR: EHAM 170325Z 22008KT CAVOK 13/10 Q1019 NOSIG

Hora: 05:53 (03:53 UTC)

Previsão

O boletim foi feito há 5 horas e 2 minutos, às 22:51 UTC
Previsão válida de 17 às 00 UTC a 18 às 06 UTC
Vento 13 kt de sudoeste
Visibilidade 10 km ou mais
Poucas nuvensa uma altura de 4900 ft
Tornando-se
de 17 às 15 UTC a 17 às 18 UTC
Vento 3 kt com direcção variável
Tornando-se
de 18 às 00 UTC a 18 às 03 UTC
Vento 6 kt de este
Probabilidade 30%
de 18 às 00 UTC a 18 às 06 UTC
Visibilidade: 5000 m
neblina

TAF: EHAM 162251Z 1700/1806 23013KT 9999 FEW049 BECMG 1715/1718 VRB03KT BECMG 1800/1803 08006KT PROB30 1800/1806 5000 BR

Observações e previsões do tempo de mais de 4000 aeroportos (mensagens METAR e TAF).

As estações disponíveis são os pontos amarelos e vermelhos sobre o mapa.

Mova o rato sobre o mapa para ver o nome da estação.

Depois clique no ponto para visualizar as observações e previsões meteorológicas.

Para alterar o mapa : clique nos botões verdes com uma cruz preta para aumentar o zoom; no botão verde com uma pitada de zoom; ou nas setas verdes para mapas adjacentes.


METAR-TAF: